sensor_id;sensor_type;location;lat;lon;timestamp;P1;durP1;ratioP1;P2;durP2;ratioP2
55300;SDS011;58302;51.446;-2.000;2024-02-21T00:01:47;11.30;;;3.15;;
55300;SDS011;58302;51.446;-2.000;2024-02-21T00:04:13;13.15;;;2.75;;
55300;SDS011;58302;51.446;-2.000;2024-02-21T00:06:39;11.00;;;3.67;;
55300;SDS011;58302;51.446;-2.000;2024-02-21T00:09:05;12.27;;;3.75;;
55300;SDS011;58302;51.446;-2.000;2024-02-21T00:11:31;8.45;;;3.10;;
55300;SDS011;58302;51.446;-2.000;2024-02-21T00:13:57;13.32;;;4.28;;
55300;SDS011;58302;51.446;-2.000;2024-02-21T00:16:23;11.52;;;4.03;;
55300;SDS011;58302;51.446;-2.000;2024-02-21T00:18:49;13.43;;;3.30;;
55300;SDS011;58302;51.446;-2.000;2024-02-21T00:21:15;8.38;;;2.53;;
55300;SDS011;58302;51.446;-2.000;2024-02-21T00:23:44;21.92;;;5.13;;
55300;SDS011;58302;51.446;-2.000;2024-02-21T00:26:14;10.32;;;3.95;;
55300;SDS011;58302;51.446;-2.000;2024-02-21T00:28:40;7.60;;;2.22;;
55300;SDS011;58302;51.446;-2.000;2024-02-21T00:31:06;8.00;;;3.25;;
55300;SDS011;58302;51.446;-2.000;2024-02-21T00:33:32;6.32;;;2.08;;
55300;SDS011;58302;51.446;-2.000;2024-02-21T00:35:58;9.45;;;2.88;;
55300;SDS011;58302;51.446;-2.000;2024-02-21T00:38:24;9.60;;;2.40;;
55300;SDS011;58302;51.446;-2.000;2024-02-21T00:40:50;8.85;;;3.72;;
55300;SDS011;58302;51.446;-2.000;2024-02-21T00:43:16;8.43;;;2.70;;
55300;SDS011;58302;51.446;-2.000;2024-02-21T00:45:42;9.73;;;3.83;;
55300;SDS011;58302;51.446;-2.000;2024-02-21T00:48:08;8.98;;;2.63;;
55300;SDS011;58302;51.446;-2.000;2024-02-21T00:50:35;5.93;;;2.90;;
55300;SDS011;58302;51.446;-2.000;2024-02-21T00:53:15;6.03;;;2.40;;
55300;SDS011;58302;51.446;-2.000;2024-02-21T00:55:41;7.75;;;3.13;;
55300;SDS011;58302;51.446;-2.000;2024-02-21T00:58:08;10.05;;;2.58;;
55300;SDS011;58302;51.446;-2.000;2024-02-21T01:00:35;6.75;;;3.28;;
55300;SDS011;58302;51.446;-2.000;2024-02-21T01:03:01;6.90;;;2.97;;
55300;SDS011;58302;51.446;-2.000;2024-02-21T01:05:28;6.50;;;3.70;;
55300;SDS011;58302;51.446;-2.000;2024-02-21T01:07:56;5.10;;;2.40;;
55300;SDS011;58302;51.446;-2.000;2024-02-21T01:10:22;6.28;;;3.45;;
55300;SDS011;58302;51.446;-2.000;2024-02-21T01:12:48;6.22;;;2.50;;
55300;SDS011;58302;51.446;-2.000;2024-02-21T01:15:14;6.40;;;2.55;;
55300;SDS011;58302;51.446;-2.000;2024-02-21T01:17:40;7.70;;;3.35;;
55300;SDS011;58302;51.446;-2.000;2024-02-21T01:20:06;12.93;;;3.30;;
55300;SDS011;58302;51.446;-2.000;2024-02-21T01:22:32;10.82;;;4.00;;
55300;SDS011;58302;51.446;-2.000;2024-02-21T01:24:58;9.15;;;3.13;;
55300;SDS011;58302;51.446;-2.000;2024-02-21T01:27:29;6.22;;;2.67;;
55300;SDS011;58302;51.446;-2.000;2024-02-21T01:29:55;15.73;;;3.53;;
55300;SDS011;58302;51.446;-2.000;2024-02-21T01:32:21;9.43;;;3.42;;
55300;SDS011;58302;51.446;-2.000;2024-02-21T01:34:50;5.35;;;3.20;;
55300;SDS011;58302;51.446;-2.000;2024-02-21T01:37:16;10.48;;;2.95;;
55300;SDS011;58302;51.446;-2.000;2024-02-21T01:39:43;13.40;;;3.45;;
55300;SDS011;58302;51.446;-2.000;2024-02-21T01:42:09;8.05;;;3.25;;
55300;SDS011;58302;51.446;-2.000;2024-02-21T01:44:36;10.00;;;3.58;;
55300;SDS011;58302;51.446;-2.000;2024-02-21T01:47:03;4.78;;;3.38;;
55300;SDS011;58302;51.446;-2.000;2024-02-21T01:49:29;5.50;;;3.33;;
55300;SDS011;58302;51.446;-2.000;2024-02-21T01:51:55;6.80;;;2.80;;
55300;SDS011;58302;51.446;-2.000;2024-02-21T01:54:22;6.90;;;3.75;;
55300;SDS011;58302;51.446;-2.000;2024-02-21T01:56:49;9.60;;;3.90;;
55300;SDS011;58302;51.446;-2.000;2024-02-21T01:59:16;4.05;;;2.30;;
55300;SDS011;58302;51.446;-2.000;2024-02-21T02:01:44;7.85;;;3.10;;
55300;SDS011;58302;51.446;-2.000;2024-02-21T02:04:12;11.82;;;3.92;;
55300;SDS011;58302;51.446;-2.000;2024-02-21T02:06:39;10.30;;;3.88;;
55300;SDS011;58302;51.446;-2.000;2024-02-21T02:09:06;5.95;;;3.65;;
55300;SDS011;58302;51.446;-2.000;2024-02-21T02:11:33;8.27;;;2.88;;
55300;SDS011;58302;51.446;-2.000;2024-02-21T02:13:59;6.80;;;3.55;;
55300;SDS011;58302;51.446;-2.000;2024-02-21T02:16:25;9.77;;;3.83;;
55300;SDS011;58302;51.446;-2.000;2024-02-21T02:18:51;7.05;;;2.90;;
55300;SDS011;58302;51.446;-2.000;2024-02-21T02:21:30;7.28;;;3.28;;
55300;SDS011;58302;51.446;-2.000;2024-02-21T02:24:00;6.78;;;3.10;;
55300;SDS011;58302;51.446;-2.000;2024-02-21T02:26:26;3.50;;;2.45;;
55300;SDS011;58302;51.446;-2.000;2024-02-21T02:28:54;4.32;;;3.13;;
55300;SDS011;58302;51.446;-2.000;2024-02-21T02:31:22;8.65;;;2.80;;
55300;SDS011;58302;51.446;-2.000;2024-02-21T02:33:48;4.32;;;2.83;;
55300;SDS011;58302;51.446;-2.000;2024-02-21T02:36:14;9.70;;;4.10;;
55300;SDS011;58302;51.446;-2.000;2024-02-21T02:38:40;9.90;;;3.65;;
55300;SDS011;58302;51.446;-2.000;2024-02-21T02:41:07;6.50;;;2.22;;
55300;SDS011;58302;51.446;-2.000;2024-02-21T02:43:33;9.38;;;3.67;;
55300;SDS011;58302;51.446;-2.000;2024-02-21T02:45:59;9.40;;;2.72;;
55300;SDS011;58302;51.446;-2.000;2024-02-21T02:48:25;12.90;;;3.95;;
55300;SDS011;58302;51.446;-2.000;2024-02-21T02:50:51;7.95;;;4.63;;
55300;SDS011;58302;51.446;-2.000;2024-02-21T02:53:18;9.40;;;2.83;;
55300;SDS011;58302;51.446;-2.000;2024-02-21T02:55:44;7.20;;;3.40;;
55300;SDS011;58302;51.446;-2.000;2024-02-21T02:58:10;9.45;;;3.00;;
55300;SDS011;58302;51.446;-2.000;2024-02-21T03:00:36;2.92;;;1.85;;
55300;SDS011;58302;51.446;-2.000;2024-02-21T03:03:02;5.75;;;3.28;;
55300;SDS011;58302;51.446;-2.000;2024-02-21T03:05:31;7.68;;;4.00;;
55300;SDS011;58302;51.446;-2.000;2024-02-21T03:07:58;6.22;;;2.15;;
55300;SDS011;58302;51.446;-2.000;2024-02-21T03:10:24;7.20;;;4.20;;
55300;SDS011;58302;51.446;-2.000;2024-02-21T03:12:52;5.28;;;3.28;;
55300;SDS011;58302;51.446;-2.000;2024-02-21T03:15:20;13.35;;;4.05;;
55300;SDS011;58302;51.446;-2.000;2024-02-21T03:17:49;5.70;;;3.55;;
55300;SDS011;58302;51.446;-2.000;2024-02-21T03:20:15;5.00;;;3.03;;
55300;SDS011;58302;51.446;-2.000;2024-02-21T03:22:41;6.78;;;3.38;;
55300;SDS011;58302;51.446;-2.000;2024-02-21T03:25:08;8.18;;;3.95;;
55300;SDS011;58302;51.446;-2.000;2024-02-21T03:27:37;8.10;;;4.97;;
55300;SDS011;58302;51.446;-2.000;2024-02-21T03:30:05;9.52;;;3.63;;
55300;SDS011;58302;51.446;-2.000;2024-02-21T03:32:34;7.35;;;2.47;;
55300;SDS011;58302;51.446;-2.000;2024-02-21T03:35:05;6.13;;;3.03;;
55300;SDS011;58302;51.446;-2.000;2024-02-21T03:37:36;5.60;;;2.92;;
55300;SDS011;58302;51.446;-2.000;2024-02-21T03:40:02;9.13;;;3.40;;
55300;SDS011;58302;51.446;-2.000;2024-02-21T03:42:39;9.80;;;3.67;;
55300;SDS011;58302;51.446;-2.000;2024-02-21T03:45:12;6.43;;;2.95;;
55300;SDS011;58302;51.446;-2.000;2024-02-21T03:47:39;9.43;;;4.03;;
55300;SDS011;58302;51.446;-2.000;2024-02-21T03:50:07;7.18;;;3.60;;
55300;SDS011;58302;51.446;-2.000;2024-02-21T03:52:34;7.75;;;3.35;;
55300;SDS011;58302;51.446;-2.000;2024-02-21T03:55:04;6.07;;;2.80;;
55300;SDS011;58302;51.446;-2.000;2024-02-21T03:57:33;6.72;;;3.22;;
55300;SDS011;58302;51.446;-2.000;2024-02-21T04:00:01;10.00;;;2.72;;
55300;SDS011;58302;51.446;-2.000;2024-02-21T04:02:29;4.97;;;2.08;;
55300;SDS011;58302;51.446;-2.000;2024-02-21T04:04:55;4.60;;;2.50;;
55300;SDS011;58302;51.446;-2.000;2024-02-21T04:07:23;8.30;;;2.17;;
55300;SDS011;58302;51.446;-2.000;2024-02-21T04:09:49;11.50;;;4.18;;
55300;SDS011;58302;51.446;-2.000;2024-02-21T04:12:16;7.28;;;3.78;;
55300;SDS011;58302;51.446;-2.000;2024-02-21T04:14:43;8.15;;;3.08;;
55300;SDS011;58302;51.446;-2.000;2024-02-21T04:17:09;8.40;;;4.03;;
55300;SDS011;58302;51.446;-2.000;2024-02-21T04:19:36;6.38;;;2.80;;
55300;SDS011;58302;51.446;-2.000;2024-02-21T04:22:02;9.20;;;3.03;;
55300;SDS011;58302;51.446;-2.000;2024-02-21T04:24:29;4.55;;;1.75;;
55300;SDS011;58302;51.446;-2.000;2024-02-21T04:26:55;6.18;;;2.85;;
55300;SDS011;58302;51.446;-2.000;2024-02-21T04:29:21;4.05;;;2.15;;
55300;SDS011;58302;51.446;-2.000;2024-02-21T04:31:47;9.00;;;3.63;;
55300;SDS011;58302;51.446;-2.000;2024-02-21T04:34:13;10.68;;;3.40;;
55300;SDS011;58302;51.446;-2.000;2024-02-21T04:36:39;12.18;;;3.70;;
55300;SDS011;58302;51.446;-2.000;2024-02-21T04:39:06;6.13;;;2.25;;
55300;SDS011;58302;51.446;-2.000;2024-02-21T04:41:32;11.65;;;3.95;;
55300;SDS011;58302;51.446;-2.000;2024-02-21T04:43:58;11.77;;;3.75;;
55300;SDS011;58302;51.446;-2.000;2024-02-21T04:46:24;8.50;;;3.13;;
55300;SDS011;58302;51.446;-2.000;2024-02-21T04:48:52;4.70;;;2.92;;
55300;SDS011;58302;51.446;-2.000;2024-02-21T04:51:18;9.65;;;2.70;;
55300;SDS011;58302;51.446;-2.000;2024-02-21T04:53:45;6.90;;;2.13;;
55300;SDS011;58302;51.446;-2.000;2024-02-21T04:56:11;15.13;;;3.08;;
55300;SDS011;58302;51.446;-2.000;2024-02-21T04:58:37;5.95;;;2.72;;
55300;SDS011;58302;51.446;-2.000;2024-02-21T05:01:04;2.75;;;2.47;;
55300;SDS011;58302;51.446;-2.000;2024-02-21T05:03:35;8.73;;;2.45;;
55300;SDS011;58302;51.446;-2.000;2024-02-21T05:06:02;5.63;;;3.35;;
55300;SDS011;58302;51.446;-2.000;2024-02-21T05:11:02;10.02;;;2.85;;
55300;SDS011;58302;51.446;-2.000;2024-02-21T05:13:28;6.35;;;2.25;;
55300;SDS011;58302;51.446;-2.000;2024-02-21T05:15:54;8.77;;;4.35;;
55300;SDS011;58302;51.446;-2.000;2024-02-21T05:18:20;6.20;;;2.70;;
55300;SDS011;58302;51.446;-2.000;2024-02-21T05:20:48;5.68;;;2.80;;
55300;SDS011;58302;51.446;-2.000;2024-02-21T05:23:14;5.15;;;2.33;;
55300;SDS011;58302;51.446;-2.000;2024-02-21T05:25:40;10.23;;;3.35;;
55300;SDS011;58302;51.446;-2.000;2024-02-21T05:28:06;10.80;;;3.25;;
55300;SDS011;58302;51.446;-2.000;2024-02-21T05:30:33;8.00;;;2.75;;
55300;SDS011;58302;51.446;-2.000;2024-02-21T05:33:03;6.85;;;3.92;;
55300;SDS011;58302;51.446;-2.000;2024-02-21T05:35:38;8.85;;;2.92;;
55300;SDS011;58302;51.446;-2.000;2024-02-21T05:38:21;3.45;;;1.50;;
55300;SDS011;58302;51.446;-2.000;2024-02-21T05:44:09;3.53;;;1.70;;
55300;SDS011;58302;51.446;-2.000;2024-02-21T05:46:44;4.35;;;1.85;;
55300;SDS011;58302;51.446;-2.000;2024-02-21T05:51:42;1.42;;;1.38;;
55300;SDS011;58302;51.446;-2.000;2024-02-21T05:54:09;9.30;;;2.00;;
55300;SDS011;58302;51.446;-2.000;2024-02-21T05:56:50;10.57;;;1.77;;
55300;SDS011;58302;51.446;-2.000;2024-02-21T05:59:16;2.88;;;1.00;;
55300;SDS011;58302;51.446;-2.000;2024-02-21T06:01:42;4.97;;;1.23;;
55300;SDS011;58302;51.446;-2.000;2024-02-21T06:04:08;1.33;;;0.90;;
55300;SDS011;58302;51.446;-2.000;2024-02-21T06:06:36;1.30;;;1.20;;
55300;SDS011;58302;51.446;-2.000;2024-02-21T06:09:07;6.95;;;1.67;;
55300;SDS011;58302;51.446;-2.000;2024-02-21T06:11:39;6.20;;;1.70;;
55300;SDS011;58302;51.446;-2.000;2024-02-21T06:14:05;2.95;;;1.65;;
55300;SDS011;58302;51.446;-2.000;2024-02-21T06:16:31;4.38;;;1.35;;
55300;SDS011;58302;51.446;-2.000;2024-02-21T06:18:58;4.55;;;1.35;;
55300;SDS011;58302;51.446;-2.000;2024-02-21T06:24:13;4.47;;;1.77;;
55300;SDS011;58302;51.446;-2.000;2024-02-21T06:26:47;4.00;;;1.35;;
55300;SDS011;58302;51.446;-2.000;2024-02-21T06:29:15;3.92;;;1.63;;
55300;SDS011;58302;51.446;-2.000;2024-02-21T06:31:42;3.90;;;1.58;;
55300;SDS011;58302;51.446;-2.000;2024-02-21T06:34:09;3.70;;;1.58;;
55300;SDS011;58302;51.446;-2.000;2024-02-21T06:36:37;1.38;;;1.27;;
55300;SDS011;58302;51.446;-2.000;2024-02-21T06:39:04;1.83;;;1.20;;
55300;SDS011;58302;51.446;-2.000;2024-02-21T06:41:33;3.20;;;1.13;;
55300;SDS011;58302;51.446;-2.000;2024-02-21T06:44:00;2.35;;;1.65;;
55300;SDS011;58302;51.446;-2.000;2024-02-21T06:46:26;3.17;;;1.63;;
55300;SDS011;58302;51.446;-2.000;2024-02-21T06:48:56;2.67;;;1.33;;
55300;SDS011;58302;51.446;-2.000;2024-02-21T06:51:22;3.88;;;2.33;;
55300;SDS011;58302;51.446;-2.000;2024-02-21T06:53:48;2.33;;;1.35;;
55300;SDS011;58302;51.446;-2.000;2024-02-21T06:56:15;1.35;;;1.10;;
55300;SDS011;58302;51.446;-2.000;2024-02-21T06:58:43;1.20;;;1.05;;
55300;SDS011;58302;51.446;-2.000;2024-02-21T07:01:10;2.58;;;1.08;;
55300;SDS011;58302;51.446;-2.000;2024-02-21T07:03:36;0.82;;;0.68;;
55300;SDS011;58302;51.446;-2.000;2024-02-21T07:06:03;5.00;;;1.60;;
55300;SDS011;58302;51.446;-2.000;2024-02-21T07:08:29;4.57;;;1.33;;
55300;SDS011;58302;51.446;-2.000;2024-02-21T07:10:55;10.25;;;1.77;;
55300;SDS011;58302;51.446;-2.000;2024-02-21T07:13:21;2.05;;;1.30;;
55300;SDS011;58302;51.446;-2.000;2024-02-21T07:15:48;2.45;;;1.25;;
55300;SDS011;58302;51.446;-2.000;2024-02-21T07:18:14;1.90;;;0.95;;
55300;SDS011;58302;51.446;-2.000;2024-02-21T07:20:40;5.05;;;2.08;;
55300;SDS011;58302;51.446;-2.000;2024-02-21T07:23:07;1.73;;;0.73;;
55300;SDS011;58302;51.446;-2.000;2024-02-21T07:25:34;5.57;;;2.35;;
55300;SDS011;58302;51.446;-2.000;2024-02-21T07:28:01;6.43;;;1.35;;
55300;SDS011;58302;51.446;-2.000;2024-02-21T07:30:27;6.38;;;2.20;;
55300;SDS011;58302;51.446;-2.000;2024-02-21T07:32:53;3.47;;;1.50;;
55300;SDS011;58302;51.446;-2.000;2024-02-21T07:35:19;4.07;;;2.13;;
55300;SDS011;58302;51.446;-2.000;2024-02-21T07:37:45;4.00;;;1.50;;
55300;SDS011;58302;51.446;-2.000;2024-02-21T07:40:12;3.28;;;0.93;;
55300;SDS011;58302;51.446;-2.000;2024-02-21T07:42:39;2.45;;;1.42;;
55300;SDS011;58302;51.446;-2.000;2024-02-21T07:45:09;3.15;;;1.77;;
55300;SDS011;58302;51.446;-2.000;2024-02-21T07:47:38;1.92;;;1.50;;
55300;SDS011;58302;51.446;-2.000;2024-02-21T07:50:04;3.03;;;1.38;;
55300;SDS011;58302;51.446;-2.000;2024-02-21T07:52:31;2.42;;;0.98;;
55300;SDS011;58302;51.446;-2.000;2024-02-21T07:54:57;10.65;;;1.92;;
55300;SDS011;58302;51.446;-2.000;2024-02-21T07:57:26;1.75;;;0.98;;
55300;SDS011;58302;51.446;-2.000;2024-02-21T07:59:53;3.85;;;0.98;;
55300;SDS011;58302;51.446;-2.000;2024-02-21T08:02:19;1.63;;;1.00;;
55300;SDS011;58302;51.446;-2.000;2024-02-21T08:04:46;7.55;;;2.33;;
55300;SDS011;58302;51.446;-2.000;2024-02-21T08:07:12;5.65;;;2.00;;
55300;SDS011;58302;51.446;-2.000;2024-02-21T08:09:39;2.03;;;1.02;;
55300;SDS011;58302;51.446;-2.000;2024-02-21T08:12:05;5.45;;;2.38;;
55300;SDS011;58302;51.446;-2.000;2024-02-21T08:14:32;2.13;;;1.13;;
55300;SDS011;58302;51.446;-2.000;2024-02-21T08:17:01;1.55;;;1.17;;
55300;SDS011;58302;51.446;-2.000;2024-02-21T08:19:27;1.30;;;0.68;;
55300;SDS011;58302;51.446;-2.000;2024-02-21T08:21:53;2.13;;;1.80;;
55300;SDS011;58302;51.446;-2.000;2024-02-21T08:24:20;1.67;;;0.75;;
55300;SDS011;58302;51.446;-2.000;2024-02-21T08:26:48;1.33;;;0.95;;
55300;SDS011;58302;51.446;-2.000;2024-02-21T08:29:14;0.98;;;0.68;;
55300;SDS011;58302;51.446;-2.000;2024-02-21T08:31:41;0.65;;;0.63;;
55300;SDS011;58302;51.446;-2.000;2024-02-21T08:34:08;2.85;;;1.02;;
55300;SDS011;58302;51.446;-2.000;2024-02-21T08:36:34;1.40;;;0.88;;
55300;SDS011;58302;51.446;-2.000;2024-02-21T08:39:01;1.50;;;1.05;;
55300;SDS011;58302;51.446;-2.000;2024-02-21T08:41:32;2.13;;;0.77;;
55300;SDS011;58302;51.446;-2.000;2024-02-21T08:44:06;2.05;;;0.63;;
55300;SDS011;58302;51.446;-2.000;2024-02-21T08:46:34;1.20;;;0.98;;
55300;SDS011;58302;51.446;-2.000;2024-02-21T08:49:00;1.50;;;1.10;;
55300;SDS011;58302;51.446;-2.000;2024-02-21T08:51:26;2.85;;;0.77;;
55300;SDS011;58302;51.446;-2.000;2024-02-21T08:53:52;2.72;;;1.10;;
55300;SDS011;58302;51.446;-2.000;2024-02-21T08:56:22;0.85;;;0.63;;
55300;SDS011;58302;51.446;-2.000;2024-02-21T08:58:48;3.55;;;0.88;;
55300;SDS011;58302;51.446;-2.000;2024-02-21T09:01:14;0.85;;;0.57;;
55300;SDS011;58302;51.446;-2.000;2024-02-21T09:03:41;1.75;;;0.45;;
55300;SDS011;58302;51.446;-2.000;2024-02-21T09:06:09;1.10;;;0.40;;
55300;SDS011;58302;51.446;-2.000;2024-02-21T09:08:37;2.40;;;0.75;;
55300;SDS011;58302;51.446;-2.000;2024-02-21T09:11:03;1.05;;;0.85;;
55300;SDS011;58302;51.446;-2.000;2024-02-21T09:13:31;1.92;;;1.20;;
55300;SDS011;58302;51.446;-2.000;2024-02-21T09:15:57;2.78;;;0.68;;
55300;SDS011;58302;51.446;-2.000;2024-02-21T09:18:23;1.13;;;0.90;;
55300;SDS011;58302;51.446;-2.000;2024-02-21T09:20:49;0.68;;;0.55;;
55300;SDS011;58302;51.446;-2.000;2024-02-21T09:23:17;2.05;;;1.38;;
55300;SDS011;58302;51.446;-2.000;2024-02-21T09:25:45;1.70;;;0.88;;
55300;SDS011;58302;51.446;-2.000;2024-02-21T09:28:11;2.40;;;2.22;;
55300;SDS011;58302;51.446;-2.000;2024-02-21T09:30:38;2.90;;;0.98;;
55300;SDS011;58302;51.446;-2.000;2024-02-21T09:33:04;0.93;;;0.93;;
55300;SDS011;58302;51.446;-2.000;2024-02-21T09:35:31;0.77;;;0.50;;
55300;SDS011;58302;51.446;-2.000;2024-02-21T09:37:59;4.25;;;0.55;;
55300;SDS011;58302;51.446;-2.000;2024-02-21T09:40:26;0.65;;;0.50;;
55300;SDS011;58302;51.446;-2.000;2024-02-21T09:42:58;0.47;;;0.47;;
55300;SDS011;58302;51.446;-2.000;2024-02-21T09:45:35;0.55;;;0.30;;
55300;SDS011;58302;51.446;-2.000;2024-02-21T09:50:36;0.47;;;0.47;;
55300;SDS011;58302;51.446;-2.000;2024-02-21T09:53:06;2.17;;;1.30;;
55300;SDS011;58302;51.446;-2.000;2024-02-21T09:55:33;0.20;;;0.20;;
55300;SDS011;58302;51.446;-2.000;2024-02-21T09:58:03;0.30;;;0.30;;
55300;SDS011;58302;51.446;-2.000;2024-02-21T10:00:30;0.00;;;0.00;;
55300;SDS011;58302;51.446;-2.000;2024-02-21T10:02:56;0.00;;;0.00;;
55300;SDS011;58302;51.446;-2.000;2024-02-21T10:05:22;0.05;;;0.05;;
55300;SDS011;58302;51.446;-2.000;2024-02-21T10:07:50;0.20;;;0.20;;
55300;SDS011;58302;51.446;-2.000;2024-02-21T10:10:17;0.00;;;0.00;;
55300;SDS011;58302;51.446;-2.000;2024-02-21T10:12:50;0.00;;;0.00;;
55300;SDS011;58302;51.446;-2.000;2024-02-21T10:15:23;0.28;;;0.28;;
55300;SDS011;58302;51.446;-2.000;2024-02-21T10:17:57;0.00;;;0.00;;
55300;SDS011;58302;51.446;-2.000;2024-02-21T10:20:24;0.17;;;0.17;;
55300;SDS011;58302;51.446;-2.000;2024-02-21T10:23:00;0.00;;;0.00;;
55300;SDS011;58302;51.446;-2.000;2024-02-21T10:25:34;0.10;;;0.10;;
55300;SDS011;58302;51.446;-2.000;2024-02-21T10:28:16;0.00;;;0.00;;
55300;SDS011;58302;51.446;-2.000;2024-02-21T10:30:50;0.63;;;0.40;;
55300;SDS011;58302;51.446;-2.000;2024-02-21T10:33:18;1.35;;;0.40;;
55300;SDS011;58302;51.446;-2.000;2024-02-21T10:35:47;0.00;;;0.00;;
55300;SDS011;58302;51.446;-2.000;2024-02-21T10:38:16;0.10;;;0.10;;
55300;SDS011;58302;51.446;-2.000;2024-02-21T10:40:42;0.00;;;0.00;;
55300;SDS011;58302;51.446;-2.000;2024-02-21T10:43:12;0.00;;;0.00;;
55300;SDS011;58302;51.446;-2.000;2024-02-21T10:45:39;0.00;;;0.00;;
55300;SDS011;58302;51.446;-2.000;2024-02-21T10:48:14;0.00;;;0.00;;
55300;SDS011;58302;51.446;-2.000;2024-02-21T10:53:54;0.00;;;0.00;;
55300;SDS011;58302;51.446;-2.000;2024-02-21T10:56:31;0.88;;;0.73;;
55300;SDS011;58302;51.446;-2.000;2024-02-21T10:59:05;0.00;;;0.00;;
55300;SDS011;58302;51.446;-2.000;2024-02-21T11:01:33;0.00;;;0.00;;
55300;SDS011;58302;51.446;-2.000;2024-02-21T11:04:19;0.00;;;0.00;;
55300;SDS011;58302;51.446;-2.000;2024-02-21T11:06:46;0.17;;;0.17;;
55300;SDS011;58302;51.446;-2.000;2024-02-21T11:09:15;0.70;;;0.43;;
55300;SDS011;58302;51.446;-2.000;2024-02-21T11:11:43;0.13;;;0.13;;
55300;SDS011;58302;51.446;-2.000;2024-02-21T11:14:17;0.00;;;0.00;;
55300;SDS011;58302;51.446;-2.000;2024-02-21T11:16:52;0.00;;;0.00;;
55300;SDS011;58302;51.446;-2.000;2024-02-21T11:19:25;0.20;;;0.20;;
55300;SDS011;58302;51.446;-2.000;2024-02-21T11:21:53;0.52;;;0.52;;
55300;SDS011;58302;51.446;-2.000;2024-02-21T11:24:27;0.00;;;0.00;;
55300;SDS011;58302;51.446;-2.000;2024-02-21T11:26:54;0.00;;;0.00;;
55300;SDS011;58302;51.446;-2.000;2024-02-21T11:29:24;0.00;;;0.00;;
55300;SDS011;58302;51.446;-2.000;2024-02-21T11:31:52;0.05;;;0.05;;
55300;SDS011;58302;51.446;-2.000;2024-02-21T11:34:19;0.00;;;0.00;;
55300;SDS011;58302;51.446;-2.000;2024-02-21T11:36:46;0.10;;;0.08;;
55300;SDS011;58302;51.446;-2.000;2024-02-21T11:39:20;0.00;;;0.00;;
55300;SDS011;58302;51.446;-2.000;2024-02-21T11:41:47;0.08;;;0.08;;
55300;SDS011;58302;51.446;-2.000;2024-02-21T11:44:26;0.00;;;0.00;;
55300;SDS011;58302;51.446;-2.000;2024-02-21T11:46:52;0.43;;;0.43;;
55300;SDS011;58302;51.446;-2.000;2024-02-21T11:49:18;0.00;;;0.00;;
55300;SDS011;58302;51.446;-2.000;2024-02-21T11:51:44;0.00;;;0.00;;
55300;SDS011;58302;51.446;-2.000;2024-02-21T11:54:10;0.00;;;0.00;;
55300;SDS011;58302;51.446;-2.000;2024-02-21T11:56:36;1.00;;;0.63;;
55300;SDS011;58302;51.446;-2.000;2024-02-21T11:59:02;0.00;;;0.00;;
55300;SDS011;58302;51.446;-2.000;2024-02-21T12:01:30;0.10;;;0.10;;
55300;SDS011;58302;51.446;-2.000;2024-02-21T12:03:57;0.00;;;0.00;;
55300;SDS011;58302;51.446;-2.000;2024-02-21T12:06:25;0.00;;;0.00;;
55300;SDS011;58302;51.446;-2.000;2024-02-21T12:08:51;0.00;;;0.00;;
55300;SDS011;58302;51.446;-2.000;2024-02-21T12:11:19;0.00;;;0.00;;
55300;SDS011;58302;51.446;-2.000;2024-02-21T12:14:01;0.05;;;0.05;;
55300;SDS011;58302;51.446;-2.000;2024-02-21T12:16:35;0.00;;;0.00;;
55300;SDS011;58302;51.446;-2.000;2024-02-21T12:19:02;0.00;;;0.00;;
55300;SDS011;58302;51.446;-2.000;2024-02-21T12:21:35;0.00;;;0.00;;
55300;SDS011;58302;51.446;-2.000;2024-02-21T12:24:14;0.00;;;0.00;;
55300;SDS011;58302;51.446;-2.000;2024-02-21T12:26:50;0.10;;;0.10;;
55300;SDS011;58302;51.446;-2.000;2024-02-21T12:29:20;0.22;;;0.22;;
55300;SDS011;58302;51.446;-2.000;2024-02-21T12:31:46;0.00;;;0.00;;
55300;SDS011;58302;51.446;-2.000;2024-02-21T12:34:13;0.35;;;0.35;;
55300;SDS011;58302;51.446;-2.000;2024-02-21T12:36:43;2.05;;;0.77;;
55300;SDS011;58302;51.446;-2.000;2024-02-21T12:39:10;0.00;;;0.00;;
55300;SDS011;58302;51.446;-2.000;2024-02-21T12:41:37;0.00;;;0.00;;
55300;SDS011;58302;51.446;-2.000;2024-02-21T12:44:09;0.00;;;0.00;;
55300;SDS011;58302;51.446;-2.000;2024-02-21T12:46:37;0.00;;;0.00;;
55300;SDS011;58302;51.446;-2.000;2024-02-21T12:49:04;0.30;;;0.30;;
55300;SDS011;58302;51.446;-2.000;2024-02-21T12:51:30;0.10;;;0.10;;
55300;SDS011;58302;51.446;-2.000;2024-02-21T12:53:58;2.90;;;1.10;;
55300;SDS011;58302;51.446;-2.000;2024-02-21T12:56:25;0.20;;;0.20;;
55300;SDS011;58302;51.446;-2.000;2024-02-21T12:58:55;0.03;;;0.03;;
55300;SDS011;58302;51.446;-2.000;2024-02-21T13:01:21;0.00;;;0.00;;
55300;SDS011;58302;51.446;-2.000;2024-02-21T13:03:48;0.03;;;0.03;;
55300;SDS011;58302;51.446;-2.000;2024-02-21T13:06:13;0.70;;;0.45;;
55300;SDS011;58302;51.446;-2.000;2024-02-21T13:08:40;0.00;;;0.00;;
55300;SDS011;58302;51.446;-2.000;2024-02-21T13:11:06;0.00;;;0.00;;
55300;SDS011;58302;51.446;-2.000;2024-02-21T13:13:33;0.00;;;0.00;;
55300;SDS011;58302;51.446;-2.000;2024-02-21T13:16:00;0.00;;;0.00;;
55300;SDS011;58302;51.446;-2.000;2024-02-21T13:18:27;0.10;;;0.10;;
55300;SDS011;58302;51.446;-2.000;2024-02-21T13:20:53;0.10;;;0.10;;
55300;SDS011;58302;51.446;-2.000;2024-02-21T13:23:22;0.00;;;0.00;;
55300;SDS011;58302;51.446;-2.000;2024-02-21T13:25:48;0.00;;;0.00;;
55300;SDS011;58302;51.446;-2.000;2024-02-21T13:28:14;0.00;;;0.00;;
55300;SDS011;58302;51.446;-2.000;2024-02-21T13:30:42;0.00;;;0.00;;
55300;SDS011;58302;51.446;-2.000;2024-02-21T13:33:08;0.00;;;0.00;;
55300;SDS011;58302;51.446;-2.000;2024-02-21T13:35:35;0.00;;;0.00;;
55300;SDS011;58302;51.446;-2.000;2024-02-21T13:38:02;3.83;;;0.80;;
55300;SDS011;58302;51.446;-2.000;2024-02-21T13:40:29;0.00;;;0.00;;
55300;SDS011;58302;51.446;-2.000;2024-02-21T13:42:55;0.30;;;0.30;;
55300;SDS011;58302;51.446;-2.000;2024-02-21T13:45:21;0.00;;;0.00;;
55300;SDS011;58302;51.446;-2.000;2024-02-21T13:47:47;0.20;;;0.20;;
55300;SDS011;58302;51.446;-2.000;2024-02-21T13:50:13;1.17;;;1.17;;
55300;SDS011;58302;51.446;-2.000;2024-02-21T13:52:40;0.00;;;0.00;;
55300;SDS011;58302;51.446;-2.000;2024-02-21T13:55:06;0.00;;;0.00;;
55300;SDS011;58302;51.446;-2.000;2024-02-21T13:57:36;0.00;;;0.00;;
55300;SDS011;58302;51.446;-2.000;2024-02-21T14:00:03;0.00;;;0.00;;
55300;SDS011;58302;51.446;-2.000;2024-02-21T14:02:30;0.00;;;0.00;;
55300;SDS011;58302;51.446;-2.000;2024-02-21T14:04:56;0.00;;;0.00;;
55300;SDS011;58302;51.446;-2.000;2024-02-21T14:07:22;0.00;;;0.00;;
55300;SDS011;58302;51.446;-2.000;2024-02-21T14:09:49;0.00;;;0.00;;
55300;SDS011;58302;51.446;-2.000;2024-02-21T14:12:15;0.13;;;0.13;;
55300;SDS011;58302;51.446;-2.000;2024-02-21T14:14:43;0.00;;;0.00;;
55300;SDS011;58302;51.446;-2.000;2024-02-21T14:17:09;0.00;;;0.00;;
55300;SDS011;58302;51.446;-2.000;2024-02-21T14:19:35;0.00;;;0.00;;
55300;SDS011;58302;51.446;-2.000;2024-02-21T14:22:01;1.55;;;0.55;;
55300;SDS011;58302;51.446;-2.000;2024-02-21T14:24:28;0.10;;;0.10;;
55300;SDS011;58302;51.446;-2.000;2024-02-21T14:26:54;0.00;;;0.00;;
55300;SDS011;58302;51.446;-2.000;2024-02-21T14:29:20;1.35;;;0.20;;
55300;SDS011;58302;51.446;-2.000;2024-02-21T14:31:47;0.30;;;0.30;;
55300;SDS011;58302;51.446;-2.000;2024-02-21T14:34:13;0.10;;;0.10;;
55300;SDS011;58302;51.446;-2.000;2024-02-21T14:36:39;1.13;;;0.70;;
55300;SDS011;58302;51.446;-2.000;2024-02-21T14:39:06;0.00;;;0.00;;
55300;SDS011;58302;51.446;-2.000;2024-02-21T14:41:32;0.57;;;0.57;;
55300;SDS011;58302;51.446;-2.000;2024-02-21T14:44:00;0.32;;;0.32;;
55300;SDS011;58302;51.446;-2.000;2024-02-21T14:46:29;0.00;;;0.00;;
55300;SDS011;58302;51.446;-2.000;2024-02-21T14:48:56;0.00;;;0.00;;
55300;SDS011;58302;51.446;-2.000;2024-02-21T14:51:22;0.10;;;0.10;;
55300;SDS011;58302;51.446;-2.000;2024-02-21T14:53:48;0.10;;;0.10;;